createdAt,value
2017-10-30T00:00:09.960Z,0.00
2017-10-30T00:01:09.950Z,0.00
2017-10-30T00:02:09.941Z,0.00
2017-10-30T00:03:09.933Z,0.00
2017-10-30T00:04:09.926Z,0.00
2017-10-30T00:05:09.921Z,0.00
2017-10-30T00:06:09.915Z,0.00
2017-10-30T00:07:09.907Z,0.00
2017-10-30T00:08:09.899Z,0.00
2017-10-30T00:09:09.892Z,0.00
2017-10-30T00:10:09.883Z,0.00
2017-10-30T00:11:09.878Z,0.00
2017-10-30T00:12:09.868Z,0.00
2017-10-30T00:13:09.857Z,0.00
2017-10-30T00:14:09.850Z,0.00
2017-10-30T00:15:09.842Z,0.00
2017-10-30T00:16:09.835Z,0.00
2017-10-30T00:17:09.825Z,0.00
2017-10-30T00:18:09.818Z,0.00
2017-10-30T00:19:09.810Z,0.00
2017-10-30T00:20:09.803Z,0.00
2017-10-30T00:21:09.800Z,0.00
2017-10-30T00:22:09.794Z,0.00
2017-10-30T00:23:09.785Z,0.00
2017-10-30T00:24:09.776Z,0.00
2017-10-30T00:25:09.769Z,0.00
2017-10-30T00:26:09.763Z,0.00
2017-10-30T00:27:09.755Z,0.00
2017-10-30T00:28:09.747Z,0.00
2017-10-30T00:29:09.735Z,0.00
2017-10-30T00:30:09.727Z,0.00
2017-10-30T00:31:09.721Z,0.00
2017-10-30T00:32:09.712Z,0.00
2017-10-30T00:33:09.704Z,0.00
2017-10-30T00:34:09.696Z,0.00
2017-10-30T00:35:09.689Z,0.00
2017-10-30T00:36:09.682Z,0.00
2017-10-30T00:37:09.678Z,0.00
2017-10-30T00:38:09.672Z,0.00
2017-10-30T00:39:09.664Z,0.00
2017-10-30T00:40:09.655Z,0.00
2017-10-30T00:41:09.648Z,0.00
2017-10-30T00:42:09.641Z,0.00
2017-10-30T00:43:09.635Z,0.00
2017-10-30T00:44:09.623Z,0.00
2017-10-30T00:45:09.614Z,0.00
2017-10-30T00:46:09.607Z,0.00
2017-10-30T00:47:09.599Z,0.00
2017-10-30T00:48:09.590Z,0.00
2017-10-30T00:49:09.583Z,0.00
2017-10-30T00:50:09.575Z,0.00
2017-10-30T00:51:09.572Z,0.00
2017-10-30T00:52:09.560Z,0.00
2017-10-30T00:53:09.555Z,0.00
2017-10-30T00:54:09.552Z,0.00
2017-10-30T00:55:09.541Z,0.00
2017-10-30T00:56:09.536Z,0.00
2017-10-30T00:57:09.527Z,0.00
2017-10-30T00:58:09.518Z,0.00
2017-10-30T00:59:09.512Z,0.00
2017-10-30T01:00:09.502Z,0.00
2017-10-30T01:01:09.491Z,0.00
2017-10-30T01:02:09.483Z,0.00
2017-10-30T01:03:09.479Z,0.00
2017-10-30T01:04:09.468Z,0.00
2017-10-30T01:05:09.464Z,0.00
2017-10-30T01:06:09.457Z,0.00
2017-10-30T01:07:09.452Z,0.00
2017-10-30T01:08:09.441Z,0.00
2017-10-30T01:09:09.428Z,0.00
2017-10-30T01:10:09.423Z,0.00
2017-10-30T01:11:09.414Z,0.00
2017-10-30T01:12:09.406Z,0.00
2017-10-30T01:13:09.399Z,0.00
2017-10-30T01:14:09.392Z,0.00
2017-10-30T01:15:09.384Z,0.00
2017-10-30T01:16:09.374Z,0.00
2017-10-30T01:17:09.372Z,0.00
2017-10-30T01:18:09.364Z,0.00
2017-10-30T01:19:09.357Z,0.00
2017-10-30T01:20:09.348Z,0.00
2017-10-30T01:21:09.340Z,0.00
2017-10-30T01:22:09.333Z,0.00
2017-10-30T01:23:09.325Z,0.00
2017-10-30T01:24:09.317Z,0.00
2017-10-30T01:25:09.305Z,0.00
2017-10-30T01:26:09.298Z,0.00
2017-10-30T01:27:09.291Z,0.00
2017-10-30T01:28:09.282Z,0.00
2017-10-30T01:29:09.273Z,0.00
2017-10-30T01:30:09.266Z,0.00
2017-10-30T01:31:09.259Z,0.00
2017-10-30T01:32:09.250Z,0.00
2017-10-30T01:33:09.246Z,0.00
2017-10-30T01:34:09.238Z,0.00
2017-10-30T01:35:09.231Z,0.00
2017-10-30T01:36:09.221Z,0.00
2017-10-30T01:37:09.214Z,0.00
2017-10-30T01:38:09.207Z,0.00
2017-10-30T01:39:09.202Z,0.00
2017-10-30T01:40:09.190Z,0.00
2017-10-30T01:41:09.182Z,0.00
2017-10-30T01:42:09.175Z,0.00
2017-10-30T01:43:09.163Z,0.00
2017-10-30T01:44:09.156Z,0.00
2017-10-30T01:45:09.147Z,0.00
2017-10-30T01:46:09.140Z,0.00
2017-10-30T01:47:09.131Z,0.00
2017-10-30T01:48:09.122Z,0.00
2017-10-30T01:49:09.119Z,0.00
2017-10-30T01:50:09.111Z,0.00
2017-10-30T01:51:09.104Z,0.00
2017-10-30T01:52:09.096Z,0.00
2017-10-30T01:53:09.087Z,0.00
2017-10-30T01:54:09.081Z,0.00
2017-10-30T01:55:09.072Z,0.00
2017-10-30T01:56:09.063Z,0.00
2017-10-30T01:57:09.050Z,0.00
2017-10-30T01:58:09.043Z,0.00
2017-10-30T01:59:09.035Z,0.00
2017-10-30T02:00:09.027Z,0.00
2017-10-30T02:01:09.017Z,0.00
2017-10-30T02:02:09.012Z,0.00
2017-10-30T02:03:09.002Z,0.00
2017-10-30T02:04:08.995Z,0.00
2017-10-30T02:05:08.990Z,0.00
2017-10-30T02:06:08.984Z,0.00
2017-10-30T02:07:08.976Z,0.00
2017-10-30T02:08:08.965Z,0.00
2017-10-30T02:09:08.955Z,0.00
2017-10-30T02:10:08.945Z,0.00
2017-10-30T02:11:08.937Z,0.00
2017-10-30T02:12:08.928Z,0.00
2017-10-30T02:13:08.929Z,0.00
2017-10-30T02:14:08.917Z,0.00
2017-10-30T02:15:08.910Z,0.00
2017-10-30T02:16:08.900Z,0.00
2017-10-30T02:17:08.894Z,0.00
2017-10-30T02:18:08.885Z,0.00
2017-10-30T02:19:08.878Z,0.00
2017-10-30T02:20:08.868Z,0.00
2017-10-30T02:21:08.856Z,0.00
2017-10-30T02:22:08.849Z,0.00
2017-10-30T02:23:08.840Z,0.00
2017-10-30T02:24:08.832Z,0.00
2017-10-30T02:25:08.822Z,0.00
2017-10-30T02:26:08.817Z,0.00
2017-10-30T02:27:08.806Z,0.00
2017-10-30T02:28:08.799Z,0.00
2017-10-30T02:29:08.795Z,0.00
2017-10-30T02:30:08.793Z,0.00
2017-10-30T02:31:08.779Z,0.00
2017-10-30T02:32:08.769Z,0.00
2017-10-30T02:33:08.762Z,0.00
2017-10-30T02:34:08.753Z,0.00
2017-10-30T02:35:08.747Z,0.00
2017-10-30T02:36:08.737Z,0.00
2017-10-30T02:37:08.727Z,0.00
2017-10-30T02:38:08.720Z,0.00
2017-10-30T02:39:08.709Z,0.00
2017-10-30T02:40:08.699Z,0.00
2017-10-30T02:41:08.692Z,0.00
2017-10-30T02:42:08.683Z,0.00
2017-10-30T02:43:08.675Z,0.00
2017-10-30T02:44:08.666Z,0.00
2017-10-30T02:45:08.662Z,0.00
2017-10-30T02:46:08.654Z,0.00
2017-10-30T02:47:08.646Z,0.00
2017-10-30T02:48:08.638Z,0.00
2017-10-30T02:49:08.629Z,0.00
2017-10-30T02:50:08.620Z,0.00
2017-10-30T02:51:08.615Z,0.00
2017-10-30T02:52:08.603Z,0.00
2017-10-30T02:53:08.592Z,0.00
2017-10-30T02:54:08.581Z,0.00
2017-10-30T02:55:08.585Z,0.00
2017-10-30T02:56:08.565Z,0.00
2017-10-30T02:57:08.559Z,0.00
2017-10-30T02:58:08.551Z,0.00
2017-10-30T02:59:08.544Z,0.00
2017-10-30T03:00:08.532Z,0.00
2017-10-30T03:01:08.529Z,0.00
2017-10-30T03:02:08.520Z,0.00
2017-10-30T03:03:08.513Z,0.00
2017-10-30T03:04:08.504Z,0.00
2017-10-30T03:05:08.496Z,0.00
2017-10-30T03:06:08.488Z,0.00
2017-10-30T03:07:08.480Z,0.00
2017-10-30T03:08:08.471Z,0.00
2017-10-30T03:09:08.458Z,0.00
2017-10-30T03:10:08.450Z,0.00
2017-10-30T03:11:08.443Z,0.00
2017-10-30T03:12:08.434Z,0.00
2017-10-30T03:13:08.428Z,0.00
2017-10-30T03:14:08.422Z,0.00
2017-10-30T03:15:08.413Z,0.00
2017-10-30T03:16:08.405Z,0.00
2017-10-30T03:17:08.393Z,0.00
2017-10-30T03:18:08.385Z,0.00
2017-10-30T03:19:08.375Z,0.00
2017-10-30T03:20:08.379Z,0.00
2017-10-30T03:21:08.360Z,0.00
2017-10-30T03:22:08.353Z,0.00
2017-10-30T03:23:08.345Z,0.00
2017-10-30T03:24:08.335Z,0.00
2017-10-30T03:25:08.331Z,0.00
2017-10-30T03:26:08.323Z,0.00
2017-10-30T03:27:08.316Z,0.00
2017-10-30T03:28:08.308Z,0.00
2017-10-30T03:29:08.300Z,0.00
2017-10-30T03:30:08.297Z,0.00
2017-10-30T03:31:08.285Z,0.00
2017-10-30T03:32:08.276Z,0.00
2017-10-30T03:33:08.264Z,0.00
2017-10-30T03:34:08.256Z,0.00
2017-10-30T03:35:08.248Z,0.00
2017-10-30T03:36:08.239Z,0.00
2017-10-30T03:37:08.232Z,0.00
2017-10-30T03:38:08.223Z,0.00
2017-10-30T03:39:08.216Z,0.00
2017-10-30T03:40:08.209Z,0.00
2017-10-30T03:41:08.205Z,0.00
2017-10-30T03:42:08.196Z,0.00
2017-10-30T03:43:08.189Z,0.00
2017-10-30T03:44:08.181Z,0.00
2017-10-30T03:45:08.173Z,0.00
2017-10-30T03:46:08.164Z,0.00
2017-10-30T03:47:08.157Z,0.00
2017-10-30T03:48:08.149Z,0.00
2017-10-30T03:49:08.137Z,0.00
2017-10-30T03:50:08.144Z,0.00
2017-10-30T03:51:08.121Z,0.00
2017-10-30T03:52:08.113Z,0.00
2017-10-30T03:53:08.103Z,0.00
2017-10-30T03:54:08.098Z,0.00
2017-10-30T03:55:08.093Z,0.00
2017-10-30T03:56:08.080Z,0.00
2017-10-30T03:57:08.076Z,0.00
2017-10-30T03:58:08.067Z,0.00
2017-10-30T03:59:08.061Z,0.00
2017-10-30T04:00:08.052Z,0.00
2017-10-30T04:01:08.046Z,0.00
2017-10-30T04:02:08.036Z,0.00
2017-10-30T04:03:08.029Z,0.00
2017-10-30T04:04:08.019Z,0.00
2017-10-30T04:05:08.008Z,0.00
2017-10-30T04:06:07.998Z,0.00
2017-10-30T04:07:07.989Z,0.00
2017-10-30T04:08:07.986Z,0.00
2017-10-30T04:09:07.973Z,0.00
2017-10-30T04:10:07.966Z,0.00
2017-10-30T04:11:07.958Z,0.00
2017-10-30T04:12:07.949Z,0.00
2017-10-30T04:13:07.944Z,0.00
2017-10-30T04:14:07.938Z,0.00
2017-10-30T04:15:07.929Z,0.00
2017-10-30T04:16:07.919Z,0.00
2017-10-30T04:17:07.906Z,0.00
2017-10-30T04:18:07.900Z,0.00
2017-10-30T04:19:07.890Z,0.00
2017-10-30T04:20:07.882Z,0.00
2017-10-30T04:21:07.879Z,0.00
2017-10-30T04:22:07.870Z,0.00
2017-10-30T04:23:07.862Z,0.00
2017-10-30T04:24:07.853Z,0.00
2017-10-30T04:25:07.843Z,0.00
2017-10-30T04:26:07.836Z,0.00
2017-10-30T04:27:07.827Z,0.00
2017-10-30T04:28:07.821Z,0.00
2017-10-30T04:29:07.816Z,0.00
2017-10-30T04:30:07.798Z,0.00
2017-10-30T04:31:07.790Z,0.00
2017-10-30T04:32:07.781Z,0.00
2017-10-30T04:33:07.773Z,0.00
2017-10-30T04:34:07.765Z,0.00
2017-10-30T04:35:07.756Z,0.00
2017-10-30T04:36:07.746Z,0.00
2017-10-30T04:37:07.741Z,0.00
2017-10-30T04:38:07.734Z,0.00
2017-10-30T04:39:07.725Z,0.00
2017-10-30T04:40:07.717Z,0.00
2017-10-30T04:41:07.708Z,0.00
2017-10-30T04:42:07.700Z,0.00
2017-10-30T04:43:07.695Z,0.00
2017-10-30T04:44:07.683Z,0.00
2017-10-30T04:45:07.669Z,0.00
2017-10-30T04:46:07.662Z,0.00
2017-10-30T04:47:07.657Z,0.00
2017-10-30T04:48:07.645Z,0.00
2017-10-30T04:49:07.635Z,0.00
2017-10-30T04:50:07.628Z,0.00
2017-10-30T04:51:07.621Z,0.00
2017-10-30T04:52:07.612Z,0.00
2017-10-30T04:53:07.607Z,0.00
2017-10-30T04:54:07.597Z,0.00
2017-10-30T04:55:07.590Z,0.00
2017-10-30T04:56:07.582Z,0.00
2017-10-30T04:57:07.575Z,0.00
2017-10-30T04:58:07.564Z,0.00
2017-10-30T04:59:07.558Z,0.00
2017-10-30T05:00:07.547Z,0.00
2017-10-30T05:01:07.535Z,0.00
2017-10-30T05:02:07.529Z,0.00
2017-10-30T05:03:07.519Z,0.00
2017-10-30T05:04:07.515Z,0.00
2017-10-30T05:05:07.502Z,0.00
2017-10-30T05:06:07.495Z,0.00
2017-10-30T05:07:07.487Z,0.00
2017-10-30T05:08:07.478Z,0.00
2017-10-30T05:09:07.475Z,0.00
2017-10-30T05:10:07.466Z,0.00
2017-10-30T05:11:07.458Z,0.00
2017-10-30T05:12:07.450Z,0.00
2017-10-30T05:13:07.443Z,0.00
2017-10-30T05:14:07.436Z,0.00
2017-10-30T05:15:07.425Z,0.00
2017-10-30T05:16:07.417Z,0.00
2017-10-30T05:17:07.406Z,0.00
2017-10-30T05:18:07.396Z,0.00
2017-10-30T05:19:07.418Z,0.00
2017-10-30T05:20:07.381Z,0.00
2017-10-30T05:21:07.378Z,0.00
2017-10-30T05:22:07.368Z,0.00
2017-10-30T05:23:07.360Z,0.00
2017-10-30T05:24:07.351Z,0.00
2017-10-30T05:25:07.340Z,0.00
2017-10-30T05:26:07.330Z,0.00
2017-10-30T05:27:07.327Z,0.00
2017-10-30T05:28:07.315Z,0.00
2017-10-30T05:29:07.306Z,0.00
2017-10-30T05:30:07.298Z,0.00
2017-10-30T05:31:07.290Z,0.00
2017-10-30T05:32:07.306Z,0.00
2017-10-30T05:33:07.277Z,0.00
2017-10-30T05:34:07.273Z,0.00
2017-10-30T05:35:07.262Z,0.00
2017-10-30T05:36:07.251Z,0.00
2017-10-30T05:37:07.245Z,0.00
2017-10-30T05:38:07.237Z,0.00
2017-10-30T05:39:07.229Z,0.00
2017-10-30T05:40:07.219Z,0.00
2017-10-30T05:41:07.207Z,0.00
2017-10-30T05:42:07.200Z,0.00
2017-10-30T05:43:07.190Z,0.00
2017-10-30T05:44:07.182Z,0.00
2017-10-30T05:45:07.179Z,0.00
2017-10-30T05:46:07.166Z,0.00
2017-10-30T05:47:07.158Z,0.00
2017-10-30T05:48:07.152Z,4.00
2017-10-30T05:49:07.144Z,0.00
2017-10-30T05:50:07.138Z,4.00
2017-10-30T05:51:07.129Z,0.00
2017-10-30T05:52:07.120Z,4.00
2017-10-30T05:53:07.110Z,4.00
2017-10-30T05:54:07.105Z,4.00
2017-10-30T05:55:07.095Z,4.00
2017-10-30T05:56:07.086Z,8.00
2017-10-30T05:57:07.074Z,8.00
2017-10-30T05:58:07.065Z,12.00
2017-10-30T05:59:07.056Z,12.00
2017-10-30T06:00:07.049Z,16.00
2017-10-30T06:01:07.040Z,16.00
2017-10-30T06:02:07.029Z,20.00
2017-10-30T06:03:07.023Z,20.00
2017-10-30T06:04:07.012Z,24.00
2017-10-30T06:05:07.010Z,28.00
2017-10-30T06:06:07.001Z,32.00
2017-10-30T06:07:06.991Z,40.00
2017-10-30T06:08:06.983Z,44.00
2017-10-30T06:09:06.975Z,56.00
2017-10-30T06:10:06.971Z,64.00
2017-10-30T06:11:06.959Z,68.00
2017-10-30T06:12:06.949Z,76.00
2017-10-30T06:13:06.937Z,84.00
2017-10-30T06:14:06.927Z,92.00
2017-10-30T06:15:06.925Z,104.00
2017-10-30T06:16:06.910Z,112.00
2017-10-30T06:17:06.902Z,124.00
2017-10-30T06:18:06.893Z,136.00
2017-10-30T06:19:06.886Z,144.00
2017-10-30T06:20:06.876Z,160.00
2017-10-30T06:21:06.872Z,176.00
2017-10-30T06:22:06.863Z,196.00
2017-10-30T06:23:06.856Z,212.00
2017-10-30T06:24:06.846Z,228.00
2017-10-30T06:25:06.835Z,248.00
2017-10-30T06:26:06.829Z,268.00
2017-10-30T06:27:06.819Z,292.00
2017-10-30T06:28:06.811Z,312.00
2017-10-30T06:29:06.799Z,336.00
2017-10-30T06:30:06.790Z,368.00
2017-10-30T06:31:06.781Z,396.00
2017-10-30T06:32:06.773Z,428.00
2017-10-30T06:33:06.764Z,456.00
2017-10-30T06:34:06.759Z,488.00
2017-10-30T06:35:06.751Z,516.00
2017-10-30T06:36:06.749Z,548.00
2017-10-30T06:37:06.734Z,580.00
2017-10-30T06:38:06.725Z,620.00
2017-10-30T06:39:06.718Z,652.00
2017-10-30T06:40:06.709Z,696.00
2017-10-30T06:41:06.700Z,732.00
2017-10-30T06:42:06.691Z,768.00
2017-10-30T06:43:06.684Z,808.00
2017-10-30T06:44:06.675Z,852.00
2017-10-30T06:45:06.663Z,892.00
2017-10-30T06:46:06.654Z,924.00
2017-10-30T06:47:06.647Z,960.00
2017-10-30T06:48:06.636Z,1000.00
2017-10-30T06:49:06.629Z,1040.00
2017-10-30T06:50:06.620Z,1088.00
2017-10-30T06:51:06.614Z,1136.00
2017-10-30T06:52:06.603Z,1184.00
2017-10-30T06:53:06.600Z,1240.00
2017-10-30T06:54:06.590Z,1324.00
2017-10-30T06:55:06.582Z,1404.00
2017-10-30T06:56:06.574Z,1496.00
2017-10-30T06:57:06.567Z,1864.00
2017-10-30T06:58:06.558Z,2296.00
2017-10-30T06:59:06.550Z,2672.00
2017-10-30T07:00:06.542Z,2948.00
2017-10-30T07:01:06.533Z,3160.00
2017-10-30T07:02:06.521Z,3464.00
2017-10-30T07:03:06.514Z,3916.00
2017-10-30T07:04:06.505Z,4164.00
2017-10-30T07:05:06.499Z,4240.00
2017-10-30T07:06:06.491Z,4320.00
2017-10-30T07:07:06.483Z,4432.00
2017-10-30T07:08:06.475Z,4420.00
2017-10-30T07:09:06.471Z,3904.00
2017-10-30T07:10:06.465Z,2484.00
2017-10-30T07:11:06.458Z,2684.00
2017-10-30T07:12:06.450Z,2612.00
2017-10-30T07:13:06.444Z,2716.00
2017-10-30T07:14:06.438Z,2848.00
2017-10-30T07:15:06.432Z,2732.00
2017-10-30T07:16:06.425Z,2960.00
2017-10-30T07:17:06.415Z,3012.00
2017-10-30T07:18:06.408Z,2756.00
2017-10-30T07:19:06.403Z,2880.00
2017-10-30T07:20:06.394Z,2652.00
2017-10-30T07:21:06.388Z,2788.00
2017-10-30T07:22:06.383Z,3412.00
2017-10-30T07:23:06.380Z,4056.00
2017-10-30T07:24:06.370Z,3168.00
2017-10-30T07:25:06.369Z,4028.00
2017-10-30T07:26:06.361Z,6824.00
2017-10-30T07:27:06.357Z,6920.00
2017-10-30T07:28:06.350Z,7280.00
2017-10-30T07:29:06.340Z,7236.00
2017-10-30T07:30:06.336Z,7080.00
2017-10-30T07:31:06.331Z,7664.00
2017-10-30T07:32:06.322Z,7804.00
2017-10-30T07:33:06.323Z,6232.00
2017-10-30T07:34:06.322Z,3476.00
2017-10-30T07:35:06.313Z,3296.00
2017-10-30T07:36:06.306Z,3384.00
2017-10-30T07:37:06.318Z,4008.00
2017-10-30T07:38:06.298Z,6900.00
2017-10-30T07:39:06.292Z,9088.00
2017-10-30T07:40:06.289Z,9656.00
2017-10-30T07:41:06.286Z,9632.00
2017-10-30T07:42:06.277Z,6476.00
2017-10-30T07:43:06.274Z,4556.00
2017-10-30T07:44:06.268Z,4704.00
2017-10-30T07:45:06.264Z,4368.00
2017-10-30T07:46:06.268Z,4444.00
2017-10-30T07:47:06.258Z,9268.00
2017-10-30T07:48:06.254Z,7752.00
2017-10-30T07:49:06.256Z,5968.00
2017-10-30T07:50:06.252Z,4140.00
2017-10-30T07:51:06.251Z,3728.00
2017-10-30T07:52:06.247Z,4740.00
2017-10-30T07:53:06.248Z,7824.00
2017-10-30T07:54:06.240Z,7028.00
2017-10-30T07:55:06.241Z,8868.00
2017-10-30T07:56:06.234Z,11040.00
2017-10-30T07:57:06.229Z,11212.00
2017-10-30T07:58:06.228Z,11416.00
2017-10-30T07:59:06.225Z,11856.00
2017-10-30T08:00:06.219Z,11964.00
2017-10-30T08:01:06.217Z,12144.00
2017-10-30T08:02:06.217Z,12424.00
2017-10-30T08:03:06.214Z,12392.00
2017-10-30T08:04:06.213Z,12368.00
2017-10-30T08:05:06.215Z,12340.00
2017-10-30T08:06:06.216Z,12284.00
2017-10-30T08:07:06.213Z,12200.00
2017-10-30T08:08:06.213Z,12120.00
2017-10-30T08:09:06.210Z,12428.00
2017-10-30T08:10:06.211Z,12304.00
2017-10-30T08:11:06.212Z,12504.00
2017-10-30T08:12:06.210Z,12492.00
2017-10-30T08:13:06.207Z,12664.00
2017-10-30T08:14:06.209Z,12844.00
2017-10-30T08:15:06.209Z,12924.00
2017-10-30T08:16:06.211Z,13148.00
2017-10-30T08:17:06.212Z,13308.00
2017-10-30T08:18:06.213Z,13420.00
2017-10-30T08:19:06.215Z,13600.00
2017-10-30T08:20:06.221Z,13824.00
2017-10-30T08:21:06.241Z,14088.00
2017-10-30T08:22:06.226Z,14688.00
2017-10-30T08:23:06.231Z,13408.00
2017-10-30T08:24:06.231Z,13480.00
2017-10-30T08:25:06.234Z,14016.00
2017-10-30T08:26:06.238Z,13344.00
2017-10-30T08:27:06.250Z,11064.00
2017-10-30T08:28:06.243Z,12780.00
2017-10-30T08:29:06.243Z,10072.00
2017-10-30T08:30:06.246Z,8980.00
2017-10-30T08:31:06.249Z,7380.00
2017-10-30T08:32:06.255Z,12116.00
2017-10-30T08:33:06.261Z,13280.00
2017-10-30T08:34:06.264Z,14128.00
2017-10-30T08:35:06.268Z,13884.00
2017-10-30T08:36:06.276Z,13728.00
2017-10-30T08:37:06.271Z,13652.00
2017-10-30T08:38:06.276Z,13744.00
2017-10-30T08:39:06.280Z,13876.00
2017-10-30T08:40:06.282Z,14312.00
2017-10-30T08:41:06.289Z,14688.00
2017-10-30T08:42:06.292Z,14576.00
2017-10-30T08:43:06.297Z,14320.00
2017-10-30T08:44:06.305Z,14248.00
2017-10-30T08:45:06.310Z,14220.00
2017-10-30T08:46:06.315Z,14232.00
2017-10-30T08:47:06.320Z,14112.00
2017-10-30T08:48:06.327Z,14656.00
2017-10-30T08:49:06.330Z,15744.00
2017-10-30T08:50:06.344Z,16320.00
2017-10-30T08:51:06.346Z,16416.00
2017-10-30T08:52:06.349Z,16416.00
2017-10-30T08:53:06.349Z,16512.00
2017-10-30T08:54:06.353Z,16352.00
2017-10-30T08:55:06.361Z,16352.00
2017-10-30T08:56:06.365Z,16608.00
2017-10-30T08:57:06.373Z,16960.00
2017-10-30T08:58:06.379Z,16960.00
2017-10-30T08:59:06.389Z,16800.00
2017-10-30T09:00:06.391Z,16864.00
2017-10-30T09:01:06.407Z,16544.00
2017-10-30T09:02:06.408Z,13928.00
2017-10-30T09:03:06.415Z,17120.00
2017-10-30T09:04:06.420Z,16736.00
2017-10-30T09:05:06.427Z,16160.00
2017-10-30T09:06:06.434Z,15456.00
2017-10-30T09:07:06.441Z,14624.00
2017-10-30T09:08:06.451Z,14376.00
2017-10-30T09:09:06.449Z,14280.00
2017-10-30T09:10:06.455Z,14352.00
2017-10-30T09:11:06.463Z,14368.00
2017-10-30T09:12:06.468Z,14368.00
2017-10-30T09:13:06.480Z,14432.00
2017-10-30T09:14:06.484Z,14420.00
2017-10-30T09:15:06.491Z,14720.00
2017-10-30T09:16:06.500Z,14688.00
2017-10-30T09:17:06.510Z,14512.00
2017-10-30T09:18:06.517Z,14452.00
2017-10-30T09:19:06.524Z,12844.00
2017-10-30T09:20:06.531Z,14912.00
2017-10-30T09:21:06.538Z,14556.00
2017-10-30T09:22:06.545Z,14544.00
2017-10-30T09:23:06.554Z,14720.00
2017-10-30T09:24:06.560Z,15072.00
2017-10-30T09:25:06.565Z,15296.00
2017-10-30T09:26:06.571Z,15904.00
2017-10-30T09:27:06.579Z,16032.00
2017-10-30T09:28:06.587Z,18656.00
2017-10-30T09:29:06.595Z,20224.00
2017-10-30T09:30:06.601Z,21152.00
2017-10-30T09:31:06.611Z,16704.00
2017-10-30T09:32:06.618Z,18400.00
2017-10-30T09:33:06.629Z,17888.00
2017-10-30T09:34:06.637Z,11464.00
2017-10-30T09:35:06.646Z,10816.00
2017-10-30T09:36:06.653Z,10876.00
2017-10-30T09:37:06.657Z,10932.00
2017-10-30T09:38:06.664Z,10860.00
2017-10-30T09:39:06.673Z,11048.00
2017-10-30T09:40:06.679Z,11696.00
2017-10-30T09:41:06.693Z,12388.00
2017-10-30T09:42:06.700Z,14236.00
2017-10-30T09:43:06.705Z,11652.00
2017-10-30T09:44:06.709Z,11340.00
2017-10-30T09:45:06.716Z,10092.00
2017-10-30T09:46:06.722Z,10020.00
2017-10-30T09:47:06.730Z,9416.00
2017-10-30T09:48:06.734Z,9700.00
2017-10-30T09:49:06.735Z,9144.00
2017-10-30T09:50:06.741Z,8468.00
2017-10-30T09:51:06.747Z,8044.00
2017-10-30T09:52:06.752Z,9372.00
2017-10-30T09:53:06.757Z,8456.00
2017-10-30T09:54:06.761Z,7400.00
2017-10-30T09:55:06.765Z,6304.00
2017-10-30T09:56:06.770Z,6896.00
2017-10-30T09:57:06.779Z,9036.00
2017-10-30T09:58:06.782Z,17248.00
2017-10-30T09:59:06.788Z,18592.00
2017-10-30T10:00:06.791Z,18720.00
2017-10-30T10:01:06.794Z,18624.00
2017-10-30T10:02:06.799Z,21376.00
2017-10-30T10:03:06.803Z,20992.00
2017-10-30T10:04:06.807Z,18912.00
2017-10-30T10:05:06.806Z,16672.00
2017-10-30T10:06:06.812Z,18496.00
2017-10-30T10:07:06.816Z,21472.00
2017-10-30T10:08:06.819Z,23936.00
2017-10-30T10:09:06.825Z,19392.00
2017-10-30T10:10:06.830Z,16992.00
2017-10-30T10:11:06.837Z,22464.00
2017-10-30T10:12:06.842Z,34528.00
2017-10-30T10:13:06.861Z,39840.00
2017-10-30T10:14:06.858Z,29152.00
2017-10-30T10:15:06.863Z,11620.00
2017-10-30T10:16:06.877Z,11884.00
2017-10-30T10:17:06.884Z,9728.00
2017-10-30T10:18:06.885Z,19776.00
2017-10-30T10:19:06.894Z,12864.00
2017-10-30T10:20:06.895Z,17504.00
2017-10-30T10:21:06.902Z,17696.00
2017-10-30T10:22:06.905Z,16224.00
2017-10-30T10:23:06.913Z,16160.00
2017-10-30T10:24:06.919Z,17248.00
2017-10-30T10:25:06.926Z,17056.00
2017-10-30T10:26:06.935Z,16800.00
2017-10-30T10:27:06.941Z,16704.00
2017-10-30T10:28:06.947Z,16512.00
2017-10-30T10:29:06.957Z,16640.00
2017-10-30T10:30:06.965Z,14396.00
2017-10-30T10:31:06.973Z,16512.00
2017-10-30T10:32:06.980Z,16224.00
2017-10-30T10:33:06.987Z,16000.00
2017-10-30T10:34:06.995Z,9916.00
2017-10-30T10:35:07.004Z,15872.00
2017-10-30T10:36:07.009Z,15232.00
2017-10-30T10:37:07.014Z,15360.00
2017-10-30T10:38:07.023Z,9144.00
2017-10-30T10:39:07.030Z,20256.00
2017-10-30T10:40:07.038Z,19552.00
2017-10-30T10:41:07.049Z,8628.00
2017-10-30T10:42:07.060Z,8488.00
2017-10-30T10:43:07.069Z,14144.00
2017-10-30T10:44:07.072Z,9920.00
2017-10-30T10:45:07.076Z,10788.00
2017-10-30T10:46:07.084Z,7780.00
2017-10-30T10:47:07.091Z,6388.00
2017-10-30T10:48:07.097Z,6280.00
2017-10-30T10:49:07.105Z,12864.00
2017-10-30T10:50:07.112Z,16448.00
2017-10-30T10:51:07.120Z,16672.00
2017-10-30T10:52:07.126Z,18208.00
2017-10-30T10:53:07.138Z,19168.00
2017-10-30T10:54:07.144Z,18336.00
2017-10-30T10:55:07.150Z,17472.00
2017-10-30T10:56:07.157Z,5860.00
2017-10-30T10:57:07.162Z,4848.00
2017-10-30T10:58:07.170Z,4056.00
2017-10-30T10:59:07.176Z,3628.00
2017-10-30T11:00:07.183Z,4020.00
2017-10-30T11:01:07.184Z,4648.00
2017-10-30T11:02:07.189Z,4552.00
2017-10-30T11:03:07.195Z,11068.00
2017-10-30T11:04:07.200Z,3984.00
2017-10-30T11:05:07.206Z,3772.00
2017-10-30T11:06:07.211Z,4156.00
2017-10-30T11:07:07.215Z,4824.00
2017-10-30T11:08:07.220Z,6104.00
2017-10-30T11:09:07.227Z,37440.00
2017-10-30T11:10:07.233Z,49024.00
2017-10-30T11:11:07.237Z,63808.00
2017-10-30T11:12:07.243Z,46272.00
2017-10-30T11:13:07.243Z,13516.00
2017-10-30T11:14:07.251Z,6052.00
2017-10-30T11:15:07.251Z,5652.00
2017-10-30T11:16:07.257Z,9412.00
2017-10-30T11:17:07.252Z,7968.00
2017-10-30T11:18:07.256Z,6320.00
2017-10-30T11:19:07.258Z,4748.00
2017-10-30T11:20:07.262Z,3296.00
2017-10-30T11:21:07.263Z,2672.00
2017-10-30T11:22:07.269Z,2424.00
2017-10-30T11:23:07.269Z,2660.00
2017-10-30T11:24:07.270Z,3272.00
2017-10-30T11:25:07.279Z,3676.00
2017-10-30T11:26:07.279Z,3944.00
2017-10-30T11:27:07.284Z,5504.00
2017-10-30T11:28:07.283Z,3728.00
2017-10-30T11:29:07.285Z,3752.00
2017-10-30T11:30:07.285Z,4088.00
2017-10-30T11:31:07.292Z,5756.00
2017-10-30T11:32:07.290Z,5128.00
2017-10-30T11:33:07.284Z,5652.00
2017-10-30T11:34:07.286Z,6064.00
2017-10-30T11:35:07.288Z,6248.00
2017-10-30T11:36:07.299Z,6856.00
2017-10-30T11:37:07.290Z,7328.00
2017-10-30T11:38:07.289Z,7168.00
2017-10-30T11:39:07.290Z,6508.00
2017-10-30T11:40:07.288Z,6284.00
2017-10-30T11:41:07.296Z,5676.00
2017-10-30T11:42:07.295Z,6532.00
2017-10-30T11:43:07.312Z,6392.00
2017-10-30T11:44:07.324Z,6848.00
2017-10-30T11:45:07.296Z,7036.00
2017-10-30T11:46:07.293Z,6980.00
2017-10-30T11:47:07.306Z,6880.00
2017-10-30T11:48:07.293Z,7144.00
2017-10-30T11:49:07.294Z,8976.00
2017-10-30T11:50:07.296Z,9124.00
2017-10-30T11:51:07.296Z,7484.00
2017-10-30T11:52:07.295Z,6548.00
2017-10-30T11:53:07.296Z,5816.00
2017-10-30T11:54:07.296Z,5324.00
2017-10-30T11:55:07.296Z,5212.00
2017-10-30T11:56:07.296Z,4320.00
2017-10-30T11:57:07.291Z,5384.00
2017-10-30T11:58:07.291Z,7420.00
2017-10-30T11:59:07.294Z,10008.00
2017-10-30T12:00:07.290Z,8996.00
2017-10-30T12:01:07.290Z,8344.00
2017-10-30T12:02:07.292Z,7320.00
2017-10-30T12:03:07.290Z,6248.00
2017-10-30T12:04:07.298Z,5644.00
2017-10-30T12:05:07.294Z,5248.00
2017-10-30T12:06:07.295Z,4956.00
2017-10-30T12:07:07.294Z,4728.00
2017-10-30T12:08:07.292Z,4372.00
2017-10-30T12:09:07.294Z,4112.00
2017-10-30T12:10:07.307Z,3732.00
2017-10-30T12:11:07.294Z,3892.00
2017-10-30T12:12:07.294Z,2832.00
2017-10-30T12:13:07.288Z,2656.00
2017-10-30T12:14:07.288Z,2736.00
2017-10-30T12:15:07.289Z,3028.00
2017-10-30T12:16:07.288Z,3392.00
2017-10-30T12:17:07.289Z,3972.00
2017-10-30T12:18:07.287Z,4280.00
2017-10-30T12:19:07.287Z,4676.00
2017-10-30T12:20:07.287Z,5068.00
2017-10-30T12:21:07.291Z,5512.00
2017-10-30T12:22:07.289Z,5796.00
2017-10-30T12:23:07.289Z,5888.00
2017-10-30T12:24:07.287Z,6436.00
2017-10-30T12:25:07.287Z,6076.00
2017-10-30T12:26:07.288Z,5536.00
2017-10-30T12:27:07.287Z,5260.00
2017-10-30T12:28:07.294Z,4944.00
2017-10-30T12:29:07.281Z,6024.00
2017-10-30T12:30:07.282Z,5864.00
2017-10-30T12:31:07.280Z,6028.00
2017-10-30T12:32:07.281Z,5892.00
2017-10-30T12:33:07.279Z,5944.00
2017-10-30T12:34:07.278Z,5968.00
2017-10-30T12:35:07.278Z,6112.00